Time;durP1;ratioP1;P1;durP2;ratioP2;P2;SDS_P1;SDS_P2;PMS_P1;PMS_P2;Temp;Humidity;BMP_temperature;BMP_pressure;BME280_temperature;BME280_humidity;BME280_pressure;Samples;Min_cycle;Max_cycle;Signal;HPM_P1;HPM_P2
2023/03/08 00:00:19;;;;;;;10.43;8.20;;;;;;;;;;5014604;28;20185;-82
2023/03/08 00:02:45;;;;;;;11.73;8.37;;;;;;;;;;5009829;28;20189;-82
2023/03/08 00:05:11;;;;;;;12.17;7.87;;;;;;;;;;5002168;28;20303;-82
2023/03/08 00:07:37;;;;;;;15.67;8.73;;;;;;;;;;5003588;28;20227;-82
2023/03/08 00:10:04;;;;;;;11.13;9.03;;;;;;;;;;5018803;28;20177;-82
2023/03/08 00:12:30;;;;;;;12.80;9.10;;;;;;;;;;5019076;28;20188;-82
2023/03/08 00:14:59;;;;;;;11.63;9.37;;;;;;;;;;5017772;28;20188;-83
2023/03/08 00:17:25;;;;;;;12.77;9.10;;;;;;;;;;5003074;28;20177;-83
2023/03/08 00:19:51;;;;;;;9.47;8.47;;;;;;;;;;4993316;28;20192;-82
2023/03/08 00:22:18;;;;;;;12.20;9.70;;;;;;;;;;5013648;28;20189;-82
2023/03/08 00:24:46;;;;;;;13.23;9.53;;;;;;;;;;5003394;28;20185;-82
2023/03/08 00:27:12;;;;;;;14.60;10.10;;;;;;;;;;5018584;28;20207;-82
2023/03/08 00:29:38;;;;;;;12.60;9.70;;;;;;;;;;4996493;28;20279;-82
2023/03/08 00:32:07;;;;;;;12.87;10.43;;;;;;;;;;4995782;28;20185;-82
2023/03/08 00:34:33;;;;;;;14.57;11.23;;;;;;;;;;4994909;28;20206;-82
2023/03/08 00:36:59;;;;;;;14.57;11.40;;;;;;;;;;4993239;28;20190;-82
2023/03/08 00:39:25;;;;;;;18.70;13.30;;;;;;;;;;4988167;28;20194;-82
2023/03/08 00:41:54;;;;;;;17.03;14.30;;;;;;;;;;4995235;28;20282;-82
2023/03/08 00:44:20;;;;;;;21.60;15.07;;;;;;;;;;4995281;28;20201;-83
2023/03/08 00:46:46;;;;;;;22.17;16.30;;;;;;;;;;4994442;28;20225;-83
2023/03/08 00:49:15;;;;;;;26.90;19.90;;;;;;;;;;4995789;28;20189;-83
2023/03/08 00:51:41;;;;;;;27.70;20.20;;;;;;;;;;4992748;28;20212;-83
2023/03/08 00:54:07;;;;;;;27.87;19.63;;;;;;;;;;4995064;28;20190;-83
2023/03/08 00:56:33;;;;;;;26.30;19.33;;;;;;;;;;5010101;28;20190;-83
2023/03/08 00:58:59;;;;;;;26.80;20.73;;;;;;;;;;4984988;28;20182;-83
2023/03/08 01:01:27;;;;;;;28.60;23.23;;;;;;;;;;4986661;28;20193;-83
2023/03/08 01:03:53;;;;;;;29.07;22.20;;;;;;;;;;4988804;28;20194;-83
2023/03/08 01:06:22;;;;;;;30.63;23.20;;;;;;;;;;4985316;28;20224;-83
2023/03/08 01:08:48;;;;;;;30.57;22.73;;;;;;;;;;4986771;28;20297;-83
2023/03/08 01:11:15;;;;;;;27.73;22.57;;;;;;;;;;4973697;28;20178;-83
2023/03/08 01:13:43;;;;;;;28.40;23.63;;;;;;;;;;4984999;28;20178;-83
2023/03/08 01:16:21;;;;;;;31.80;23.30;;;;;;;;;;4985934;28;20268;-83
2023/03/08 01:18:47;;;;;;;30.93;23.10;;;;;;;;;;4987143;28;20261;-83
2023/03/08 01:21:14;;;;;;;31.70;23.80;;;;;;;;;;4984012;28;20186;-84
2023/03/08 01:23:43;;;;;;;32.03;23.63;;;;;;;;;;5010294;28;20189;-84
2023/03/08 01:26:13;;;;;;;31.90;23.83;;;;;;;;;;4985806;28;20197;-84
2023/03/08 01:28:42;;;;;;;33.60;23.50;;;;;;;;;;4989034;28;20186;-84
2023/03/08 01:31:13;;;;;;;30.03;23.07;;;;;;;;;;5011775;28;20208;-84
2023/03/08 01:33:42;;;;;;;28.47;21.57;;;;;;;;;;5012290;28;20191;-84
2023/03/08 01:36:10;;;;;;;28.90;21.40;;;;;;;;;;5010945;28;20247;-84
2023/03/08 01:38:39;;;;;;;28.73;21.23;;;;;;;;;;5009415;28;20276;-84
2023/03/08 01:41:06;;;;;;;26.40;19.77;;;;;;;;;;5010017;28;20180;-84
2023/03/08 01:43:33;;;;;;;23.13;19.33;;;;;;;;;;5007302;28;20184;-84
2023/03/08 01:46:13;;;;;;;27.63;22.10;;;;;;;;;;5006940;28;20203;-84
2023/03/08 01:48:42;;;;;;;27.10;22.20;;;;;;;;;;5030248;28;20177;-84
2023/03/08 01:51:13;;;;;;;30.90;24.10;;;;;;;;;;5013158;28;20209;-84
2023/03/08 01:53:40;;;;;;;31.10;24.80;;;;;;;;;;5007745;28;20177;-84
2023/03/08 01:56:11;;;;;;;28.90;23.73;;;;;;;;;;5009262;28;20213;-84
2023/03/08 01:58:39;;;;;;;29.73;23.83;;;;;;;;;;5012113;28;20185;-84
2023/03/08 02:01:05;;;;;;;33.83;26.33;;;;;;;;;;5010439;28;20189;-84
2023/03/08 02:03:35;;;;;;;33.47;25.43;;;;;;;;;;5011564;28;20212;-84
2023/03/08 02:06:02;;;;;;;35.07;26.83;;;;;;;;;;5009570;28;20185;-84
2023/03/08 02:08:29;;;;;;;34.93;28.03;;;;;;;;;;5010419;28;20196;-84
2023/03/08 02:10:58;;;;;;;34.97;27.53;;;;;;;;;;5008512;28;20188;-84
2023/03/08 02:13:25;;;;;;;37.13;27.47;;;;;;;;;;5006264;28;20173;-84
2023/03/08 02:15:53;;;;;;;35.77;27.93;;;;;;;;;;5009015;28;20188;-83
2023/03/08 02:18:20;;;;;;;38.97;29.33;;;;;;;;;;5007396;28;20268;-84
2023/03/08 02:20:46;;;;;;;36.83;28.13;;;;;;;;;;5009763;28;20230;-84
2023/03/08 02:23:15;;;;;;;46.33;30.37;;;;;;;;;;5007750;28;20188;-84
2023/03/08 02:25:47;;;;;;;45.10;30.63;;;;;;;;;;5009968;28;20191;-84
2023/03/08 02:28:16;;;;;;;50.37;30.83;;;;;;;;;;5016394;28;20189;-84
2023/03/08 02:30:42;;;;;;;49.63;31.40;;;;;;;;;;5015756;28;20359;-84
2023/03/08 02:33:08;;;;;;;53.13;32.27;;;;;;;;;;5011600;28;20216;-84
2023/03/08 02:35:37;;;;;;;51.53;32.33;;;;;;;;;;5016620;28;20189;-84
2023/03/08 02:38:03;;;;;;;71.77;31.80;;;;;;;;;;5016369;28;20197;-84
2023/03/08 02:40:29;;;;;;;108.30;33.07;;;;;;;;;;5015019;28;20198;-83
2023/03/08 02:42:55;;;;;;;59.70;31.43;;;;;;;;;;5009350;28;20284;-84
2023/03/08 02:45:24;;;;;;;89.30;32.13;;;;;;;;;;5010991;28;20189;-84
2023/03/08 02:47:50;;;;;;;134.23;34.00;;;;;;;;;;5008565;28;20235;-84
2023/03/08 02:50:16;;;;;;;169.33;34.60;;;;;;;;;;4996872;28;20181;-83
2023/03/08 02:52:42;;;;;;;160.47;34.10;;;;;;;;;;4992235;28;20255;-83
2023/03/08 02:55:10;;;;;;;237.03;32.50;;;;;;;;;;5015005;28;20180;-83
2023/03/08 02:57:36;;;;;;;443.17;38.60;;;;;;;;;;5010537;28;20312;-83
2023/03/08 03:00:03;;;;;;;259.00;33.00;;;;;;;;;;5029762;28;20216;-84
2023/03/08 03:02:31;;;;;;;221.23;34.77;;;;;;;;;;5009486;28;20193;-84
2023/03/08 03:04:57;;;;;;;133.20;31.70;;;;;;;;;;5013633;28;20263;-83
2023/03/08 03:07:23;;;;;;;221.87;33.13;;;;;;;;;;5006733;28;20201;-83
2023/03/08 03:09:49;;;;;;;294.63;37.30;;;;;;;;;;4990047;28;20173;-83
2023/03/08 03:12:18;;;;;;;287.20;34.23;;;;;;;;;;4999462;28;20187;-84
2023/03/08 03:14:44;;;;;;;245.00;33.97;;;;;;;;;;5014059;28;20177;-84
2023/03/08 03:17:16;;;;;;;208.03;33.57;;;;;;;;;;5008955;28;20189;-84
2023/03/08 03:19:42;;;;;;;191.13;31.77;;;;;;;;;;5007414;28;20177;-84
2023/03/08 03:22:08;;;;;;;191.10;33.37;;;;;;;;;;5005132;28;20272;-84
2023/03/08 03:24:34;;;;;;;226.63;33.47;;;;;;;;;;5028801;28;20204;-83
2023/03/08 03:27:02;;;;;;;136.07;31.47;;;;;;;;;;5007501;28;20207;-84
2023/03/08 03:29:28;;;;;;;104.80;34.20;;;;;;;;;;5003860;28;20205;-84
2023/03/08 03:31:54;;;;;;;107.80;34.70;;;;;;;;;;5007370;28;20210;-84
2023/03/08 03:34:20;;;;;;;98.73;34.73;;;;;;;;;;5009580;28;20179;-84
2023/03/08 03:36:47;;;;;;;122.50;35.60;;;;;;;;;;5010603;28;20199;-84
2023/03/08 03:39:13;;;;;;;86.90;33.63;;;;;;;;;;5007008;28;20244;-84
2023/03/08 03:41:39;;;;;;;93.83;36.23;;;;;;;;;;5031349;28;20260;-84
2023/03/08 03:44:05;;;;;;;77.90;34.73;;;;;;;;;;5008334;28;20242;-84
2023/03/08 03:46:33;;;;;;;84.57;36.83;;;;;;;;;;4981816;28;20217;-84
2023/03/08 03:48:59;;;;;;;137.10;39.37;;;;;;;;;;5001409;28;20178;-84
2023/03/08 03:51:25;;;;;;;90.20;40.73;;;;;;;;;;4996332;28;20244;-84
2023/03/08 03:53:51;;;;;;;136.73;43.40;;;;;;;;;;4992240;28;20190;-84
2023/03/08 03:56:25;;;;;;;112.83;42.57;;;;;;;;;;5014615;28;20193;-84
2023/03/08 03:58:53;;;;;;;95.00;42.47;;;;;;;;;;5004590;28;20193;-84
2023/03/08 04:01:21;;;;;;;182.40;48.13;;;;;;;;;;4980191;28;20212;-84
2023/03/08 04:03:48;;;;;;;333.83;52.67;;;;;;;;;;5019973;28;20228;-84
2023/03/08 04:06:16;;;;;;;362.27;53.30;;;;;;;;;;4996371;28;20236;-84
2023/03/08 04:08:43;;;;;;;191.77;48.53;;;;;;;;;;5008172;28;20181;-84
2023/03/08 04:11:10;;;;;;;152.03;50.60;;;;;;;;;;5005852;28;20178;-84
2023/03/08 04:13:39;;;;;;;305.10;52.70;;;;;;;;;;5006962;28;20181;-84
2023/03/08 04:16:13;;;;;;;132.27;48.20;;;;;;;;;;5018691;28;20230;-84
2023/03/08 04:18:39;;;;;;;126.37;49.00;;;;;;;;;;5012504;28;20223;-82
2023/03/08 04:21:05;;;;;;;161.37;47.83;;;;;;;;;;4983730;28;20181;-82
2023/03/08 04:23:31;;;;;;;247.20;53.43;;;;;;;;;;5015672;28;20191;-82
2023/03/08 04:25:58;;;;;;;329.03;51.13;;;;;;;;;;5018882;28;20259;-83
2023/03/08 04:28:24;;;;;;;253.00;52.33;;;;;;;;;;5015614;28;20173;-82
2023/03/08 04:30:50;;;;;;;236.23;49.93;;;;;;;;;;4996455;28;20229;-83
2023/03/08 04:33:16;;;;;;;151.67;50.17;;;;;;;;;;5006489;28;20235;-82
2023/03/08 04:35:42;;;;;;;160.33;50.53;;;;;;;;;;4999462;28;20182;-82
2023/03/08 04:38:08;;;;;;;205.23;51.83;;;;;;;;;;5009435;28;20271;-82
2023/03/08 04:41:00;;;;;;;265.17;55.30;;;;;;;;;;4999183;28;20178;-82
2023/03/08 04:43:20;;;;;;;130.10;49.70;;;;;;;;;;5017438;28;20193;-82
2023/03/08 04:45:46;;;;;;;155.40;48.50;;;;;;;;;;5018670;28;20176;-82
2023/03/08 04:48:12;;;;;;;124.43;48.80;;;;;;;;;;5018000;28;20216;-82
2023/03/08 04:50:38;;;;;;;121.27;48.93;;;;;;;;;;4999467;28;20189;-82
2023/03/08 04:53:07;;;;;;;114.47;49.03;;;;;;;;;;4983551;28;20177;-82
2023/03/08 04:55:33;;;;;;;112.77;47.77;;;;;;;;;;5000241;28;20185;-82
2023/03/08 04:57:59;;;;;;;117.97;49.37;;;;;;;;;;4983027;28;20181;-82
2023/03/08 05:00:25;;;;;;;125.80;50.00;;;;;;;;;;5001919;28;20276;-82
2023/03/08 05:02:51;;;;;;;140.53;53.50;;;;;;;;;;5018521;28;20180;-82
2023/03/08 05:05:17;;;;;;;134.27;52.00;;;;;;;;;;5003817;28;20192;-82
2023/03/08 05:07:44;;;;;;;135.77;52.57;;;;;;;;;;4998754;28;20252;-82
2023/03/08 05:10:10;;;;;;;144.13;52.30;;;;;;;;;;5012071;28;20191;-83
2023/03/08 05:12:39;;;;;;;145.53;54.33;;;;;;;;;;5018416;28;20186;-82
2023/03/08 05:15:05;;;;;;;133.73;51.40;;;;;;;;;;5005674;28;20181;-82
2023/03/08 05:17:31;;;;;;;112.40;52.27;;;;;;;;;;4997939;28;20181;-82
2023/03/08 05:19:59;;;;;;;147.87;54.80;;;;;;;;;;5005289;28;20187;-83
2023/03/08 05:22:25;;;;;;;144.90;51.40;;;;;;;;;;4998522;28;20182;-82
2023/03/08 05:24:51;;;;;;;171.63;52.57;;;;;;;;;;5005010;28;20193;-83
2023/03/08 05:27:18;;;;;;;198.30;50.40;;;;;;;;;;4998241;28;20259;-82
2023/03/08 05:29:46;;;;;;;194.47;52.50;;;;;;;;;;5006873;28;20252;-82
2023/03/08 05:32:12;;;;;;;186.90;52.23;;;;;;;;;;5008206;28;20185;-83
2023/03/08 05:34:38;;;;;;;239.30;52.07;;;;;;;;;;4987955;28;20212;-82
2023/03/08 05:37:07;;;;;;;179.47;50.47;;;;;;;;;;5016798;28;20196;-82
2023/03/08 05:39:33;;;;;;;232.33;50.53;;;;;;;;;;4996263;28;20216;-82
2023/03/08 05:41:59;;;;;;;267.27;52.77;;;;;;;;;;4981907;28;20185;-82
2023/03/08 05:44:25;;;;;;;128.90;49.67;;;;;;;;;;4985282;28;20185;-82
2023/03/08 05:46:54;;;;;;;194.30;54.17;;;;;;;;;;4989716;28;20220;-82
2023/03/08 05:49:20;;;;;;;367.87;60.53;;;;;;;;;;4999604;28;20174;-82
2023/03/08 05:51:46;;;;;;;297.00;58.57;;;;;;;;;;5000411;28;20212;-83
2023/03/08 05:54:12;;;;;;;244.87;58.70;;;;;;;;;;5016094;28;20180;-82
2023/03/08 05:56:40;;;;;;;163.17;55.33;;;;;;;;;;5000412;28;20288;-84
2023/03/08 05:59:06;;;;;;;255.80;55.80;;;;;;;;;;5020480;28;20284;-83
2023/03/08 06:01:32;;;;;;;166.43;53.90;;;;;;;;;;5015765;28;20248;-82
2023/03/08 06:04:01;;;;;;;324.20;60.03;;;;;;;;;;5004665;28;20240;-82
2023/03/08 06:06:27;;;;;;;297.83;55.67;;;;;;;;;;5015091;28;20207;-82
2023/03/08 06:08:55;;;;;;;309.67;57.30;;;;;;;;;;5011351;28;20215;-83
2023/03/08 06:11:21;;;;;;;275.17;52.50;;;;;;;;;;5012641;28;20216;-83
2023/03/08 06:13:47;;;;;;;198.10;51.33;;;;;;;;;;5015400;28;20172;-83
2023/03/08 06:16:14;;;;;;;288.80;81.13;;;;;;;;;;5013206;28;20437;-82
2023/03/08 06:18:41;;;;;;;204.87;53.10;;;;;;;;;;5017168;28;20177;-84
2023/03/08 06:21:07;;;;;;;134.73;48.77;;;;;;;;;;5017561;28;20196;-84
2023/03/08 06:23:34;;;;;;;166.40;47.77;;;;;;;;;;5013829;28;20173;-84
2023/03/08 06:26:00;;;;;;;221.80;49.20;;;;;;;;;;5001063;28;20188;-83
2023/03/08 06:28:27;;;;;;;226.63;46.80;;;;;;;;;;5000515;28;20211;-83
2023/03/08 06:30:55;;;;;;;195.43;48.77;;;;;;;;;;4991730;28;20210;-84
2023/03/08 06:33:23;;;;;;;194.70;46.40;;;;;;;;;;4966524;28;20218;-84
2023/03/08 06:36:09;;;;;;;107.50;43.33;;;;;;;;;;4984463;28;20174;-84
2023/03/08 06:38:36;;;;;;;99.77;43.03;;;;;;;;;;4983352;28;20174;-84
2023/03/08 06:41:05;;;;;;;96.60;41.43;;;;;;;;;;4984554;28;20240;-84
2023/03/08 06:43:32;;;;;;;89.60;41.50;;;;;;;;;;4981707;28;20178;-84
2023/03/08 06:45:58;;;;;;;116.37;42.00;;;;;;;;;;4981910;28;20179;-84
2023/03/08 06:51:35;;;;;;;150.07;44.67;;;;;;;;;;4981906;28;20204;-84
2023/03/08 06:54:18;;;;;;;148.33;45.33;;;;;;;;;;4983588;28;20184;-84
2023/03/08 06:56:45;;;;;;;141.67;46.27;;;;;;;;;;4984194;28;20183;-84
2023/03/08 06:59:19;;;;;;;120.07;45.27;;;;;;;;;;4982997;28;20186;-84
2023/03/08 07:02:01;;;;;;;129.50;45.50;;;;;;;;;;4984241;28;20182;-84
2023/03/08 07:04:30;;;;;;;207.93;48.77;;;;;;;;;;4969733;28;20201;-84
2023/03/08 07:06:59;;;;;;;127.30;46.37;;;;;;;;;;4982929;28;20206;-84
2023/03/08 07:09:25;;;;;;;142.07;47.73;;;;;;;;;;4981887;28;20217;-84
2023/03/08 07:12:21;;;;;;;115.73;44.33;;;;;;;;;;4982558;28;20170;-84
2023/03/08 07:14:57;;;;;;;138.10;47.20;;;;;;;;;;4896646;29;20284;-84
2023/03/08 07:17:32;;;;;;;114.40;46.53;;;;;;;;;;4973834;28;20175;-84
2023/03/08 07:20:14;;;;;;;139.23;48.77;;;;;;;;;;4957550;28;20198;-84
2023/03/08 07:22:45;;;;;;;122.07;47.13;;;;;;;;;;4973884;28;20233;-84
2023/03/08 07:25:39;;;;;;;123.07;50.03;;;;;;;;;;4973674;28;20249;-83
2023/03/08 07:28:41;;;;;;;;;;;;;;;;;;;;;
2023/03/08 07:31:10;;;;;;;126.87;49.67;;;;;;;;;;5004411;28;20242;-83
2023/03/08 07:33:36;;;;;;;117.03;49.40;;;;;;;;;;5002558;28;20179;-85
2023/03/08 07:36:08;;;;;;;121.93;49.27;;;;;;;;;;5016235;28;20177;-85
2023/03/08 07:38:40;;;;;;;120.30;50.07;;;;;;;;;;5015967;28;20203;-85
2023/03/08 07:41:09;;;;;;;125.70;49.63;;;;;;;;;;5000243;28;20184;-85
2023/03/08 07:43:35;;;;;;;117.83;49.93;;;;;;;;;;5020171;28;20169;-84
2023/03/08 07:46:04;;;;;;;128.33;51.27;;;;;;;;;;5019719;28;20169;-85
2023/03/08 07:48:30;;;;;;;123.80;51.97;;;;;;;;;;5019701;28;20223;-85
2023/03/08 07:51:06;;;;;;;133.30;50.90;;;;;;;;;;5019616;28;20193;-84
2023/03/08 07:53:32;;;;;;;120.87;49.87;;;;;;;;;;5020291;28;20198;-84
2023/03/08 07:56:01;;;;;;;138.30;51.40;;;;;;;;;;5020773;28;20180;-84
2023/03/08 07:58:35;;;;;;;119.07;50.33;;;;;;;;;;5019416;28;20180;-84
2023/03/08 08:01:01;;;;;;;122.97;51.30;;;;;;;;;;5019469;28;20214;-84
2023/03/08 08:03:36;;;;;;;124.40;49.53;;;;;;;;;;5019747;28;20226;-83
2023/03/08 08:06:02;;;;;;;108.20;49.10;;;;;;;;;;5011048;28;20275;-84
2023/03/08 08:08:29;;;;;;;118.17;49.13;;;;;;;;;;5001244;28;20185;-83
2023/03/08 08:10:57;;;;;;;117.27;48.97;;;;;;;;;;5001490;28;20197;-83
2023/03/08 08:13:26;;;;;;;123.27;50.47;;;;;;;;;;4999883;28;20192;-83
2023/03/08 08:15:59;;;;;;;120.53;49.67;;;;;;;;;;5016179;28;20185;-83
2023/03/08 08:18:25;;;;;;;113.77;50.20;;;;;;;;;;5015937;28;20196;-83
2023/03/08 08:20:58;;;;;;;112.37;48.07;;;;;;;;;;4999534;28;20188;-83
2023/03/08 08:23:47;;;;;;;115.93;49.73;;;;;;;;;;5011619;28;20185;-83
2023/03/08 08:26:15;;;;;;;112.20;47.70;;;;;;;;;;4987734;28;20193;-84
2023/03/08 08:28:46;;;;;;;110.00;48.87;;;;;;;;;;5000048;28;20221;-84
2023/03/08 08:31:16;;;;;;;106.60;49.27;;;;;;;;;;4999268;28;20220;-84
2023/03/08 08:33:42;;;;;;;111.93;50.10;;;;;;;;;;5018502;28;20177;-83
2023/03/08 08:36:10;;;;;;;111.07;50.77;;;;;;;;;;5018925;28;20239;-83
2023/03/08 08:38:42;;;;;;;111.23;50.40;;;;;;;;;;5018720;28;20172;-84
2023/03/08 08:41:14;;;;;;;107.73;49.87;;;;;;;;;;5017860;28;20176;-84
2023/03/08 08:43:44;;;;;;;96.60;46.90;;;;;;;;;;5017516;28;20248;-84
2023/03/08 08:46:13;;;;;;;97.43;47.30;;;;;;;;;;5018560;28;20219;-83
2023/03/08 08:48:42;;;;;;;58.72;36.10;;;;;;;;;;5017320;28;20437;-84
2023/03/08 08:51:09;;;;;;;70.73;36.60;;;;;;;;;;5001011;28;20215;-84
2023/03/08 08:53:38;;;;;;;52.17;32.37;;;;;;;;;;5018222;28;20177;-84
2023/03/08 08:56:11;;;;;;;56.73;34.60;;;;;;;;;;5018594;28;20176;-85
2023/03/08 08:58:37;;;;;;;57.80;33.57;;;;;;;;;;5018657;28;20233;-84
2023/03/08 09:01:12;;;;;;;52.63;30.87;;;;;;;;;;5002358;28;20173;-84
2023/03/08 09:03:41;;;;;;;45.13;26.50;;;;;;;;;;5017836;28;20177;-84
2023/03/08 09:06:07;;;;;;;40.13;24.03;;;;;;;;;;5018402;28;20268;-84
2023/03/08 09:08:39;;;;;;;38.43;23.33;;;;;;;;;;5018371;28;20255;-85
2023/03/08 09:11:07;;;;;;;35.53;22.20;;;;;;;;;;5018235;28;20226;-85
2023/03/08 09:13:33;;;;;;;31.63;21.00;;;;;;;;;;5018092;28;20204;-85
2023/03/08 09:16:07;;;;;;;35.33;23.07;;;;;;;;;;5018064;28;20284;-85
2023/03/08 09:18:36;;;;;;;34.57;21.93;;;;;;;;;;5001730;28;20215;-85
2023/03/08 09:23:56;;;;;;;34.57;22.57;;;;;;;;;;5018188;28;20188;-85
2023/03/08 09:26:22;;;;;;;39.00;24.20;;;;;;;;;;5017976;28;20295;-85
2023/03/08 09:28:51;;;;;;;38.23;22.70;;;;;;;;;;5017839;28;20268;-85
2023/03/08 09:31:22;;;;;;;32.40;21.83;;;;;;;;;;5017773;28;20258;-85
2023/03/08 09:33:51;;;;;;;31.43;20.90;;;;;;;;;;5017933;28;20185;-85
2023/03/08 09:36:17;;;;;;;32.53;22.03;;;;;;;;;;5018078;28;20255;-85
2023/03/08 09:38:51;;;;;;;30.93;20.67;;;;;;;;;;5019507;28;20184;-85
2023/03/08 09:41:30;;;;;;;28.30;20.03;;;;;;;;;;5014488;28;20185;-85
2023/03/08 09:44:18;;;;;;;27.73;20.23;;;;;;;;;;4998414;28;20263;-86
2023/03/08 09:46:49;;;;;;;30.23;20.93;;;;;;;;;;4998231;28;20217;-85
2023/03/08 09:49:25;;;;;;;26.37;20.27;;;;;;;;;;5001700;28;20177;-85
2023/03/08 09:52:15;;;;;;;29.63;20.97;;;;;;;;;;4999027;28;20208;-85
2023/03/08 09:54:50;;;;;;;26.83;21.07;;;;;;;;;;4999413;28;20181;-86
2023/03/08 09:57:20;;;;;;;29.83;20.50;;;;;;;;;;5000430;28;20201;-85
2023/03/08 10:00:07;;;;;;;25.83;18.63;;;;;;;;;;4998768;28;20227;-86
2023/03/08 10:03:11;;;;;;;26.50;17.70;;;;;;;;;;4999338;28;20189;-86
2023/03/08 10:05:54;;;;;;;24.52;21.52;;;;;;;;;;4972066;28;20403;-87
2023/03/08 10:08:33;;;;;;;23.63;18.30;;;;;;;;;;4998514;28;20208;-86
2023/03/08 10:11:53;;;;;;;22.70;16.67;;;;;;;;;;4999344;28;20172;-86
2023/03/08 10:14:19;;;;;;;22.93;17.50;;;;;;;;;;4999280;28;20183;-85
2023/03/08 10:16:52;;;;;;;21.83;16.73;;;;;;;;;;4998904;28;20200;-85
2023/03/08 10:19:30;;;;;;;20.03;15.93;;;;;;;;;;4998855;28;20268;-85
2023/03/08 10:22:03;;;;;;;21.17;15.70;;;;;;;;;;4998129;28;20177;-85
2023/03/08 10:24:49;;;;;;;;;;;;;;;;;;;;;
2023/03/08 10:27:21;;;;;;;26.27;18.03;;;;;;;;;;5016042;28;20205;-84
2023/03/08 10:29:51;;;;;;;22.10;17.63;;;;;;;;;;5009796;28;20245;-85
2023/03/08 10:32:17;;;;;;;24.53;18.23;;;;;;;;;;4998470;28;20193;-85
2023/03/08 10:34:43;;;;;;;23.57;16.60;;;;;;;;;;5014689;28;20177;-86
2023/03/08 10:37:14;;;;;;;24.60;17.03;;;;;;;;;;5013805;28;20216;-86
2023/03/08 10:39:53;;;;;;;20.73;16.10;;;;;;;;;;5012851;28;20185;-86
2023/03/08 10:42:30;;;;;;;19.67;15.63;;;;;;;;;;5013675;28;20228;-86
2023/03/08 10:45:22;;;;;;;;;;;;;;;;;;;;;
2023/03/08 10:48:08;;;;;;;18.00;13.83;;;;;;;;;;5014184;28;20216;-87
2023/03/08 10:50:44;;;;;;;18.70;12.73;;;;;;;;;;5013442;28;20256;-86
2023/03/08 10:53:34;;;;;;;14.20;11.93;;;;;;;;;;5012567;28;20244;-86
2023/03/08 10:56:01;;;;;;;15.17;12.77;;;;;;;;;;4997132;28;20185;-87
2023/03/08 10:58:34;;;;;;;16.40;12.37;;;;;;;;;;5013786;28;20245;-85
2023/03/08 11:04:06;;;;;;;17.40;13.63;;;;;;;;;;5014535;28;20188;-86
2023/03/08 11:06:40;;;;;;;19.37;14.37;;;;;;;;;;5012954;28;20217;-86
2023/03/08 11:09:21;;;;;;;18.33;14.10;;;;;;;;;;5012825;28;20244;-85
2023/03/08 11:11:57;;;;;;;20.53;15.00;;;;;;;;;;5012819;28;20193;-86
2023/03/08 11:14:24;;;;;;;21.63;14.57;;;;;;;;;;5012736;28;20180;-87
2023/03/08 11:17:02;;;;;;;19.20;13.93;;;;;;;;;;5011827;28;20185;-87
2023/03/08 11:19:32;;;;;;;23.27;15.63;;;;;;;;;;5012848;28;20184;-87
2023/03/08 11:22:13;;;;;;;23.63;16.07;;;;;;;;;;5013930;28;20181;-88
2023/03/08 11:25:11;;;;;;;20.50;14.33;;;;;;;;;;5015662;28;20188;-86
2023/03/08 11:28:01;;;;;;;15.97;12.43;;;;;;;;;;4949187;28;20224;-87
2023/03/08 11:30:30;;;;;;;16.90;12.90;;;;;;;;;;5014608;28;20224;-87
2023/03/08 11:33:08;;;;;;;19.43;13.17;;;;;;;;;;5016170;28;20185;-87
2023/03/08 11:35:34;;;;;;;21.17;15.00;;;;;;;;;;5016466;28;20180;-87
2023/03/08 11:38:39;;;;;;;20.93;15.20;;;;;;;;;;5016429;28;20177;-88
2023/03/08 11:41:35;;;;;;;18.33;14.63;;;;;;;;;;4938105;29;20179;-87
2023/03/08 11:44:15;;;;;;;19.43;15.43;;;;;;;;;;4952943;28;20184;-87
2023/03/08 11:46:41;;;;;;;21.13;15.73;;;;;;;;;;4994726;28;20227;-87
2023/03/08 11:49:13;;;;;;;17.63;14.40;;;;;;;;;;5023065;28;20279;-87
2023/03/08 11:52:05;;;;;;;18.50;15.40;;;;;;;;;;5012270;28;20205;-87
2023/03/08 11:54:50;;;;;;;20.43;15.87;;;;;;;;;;4974078;28;20306;-86
2023/03/08 11:57:17;;;;;;;20.70;14.77;;;;;;;;;;5015687;28;20214;-86
2023/03/08 11:59:43;;;;;;;21.67;15.70;;;;;;;;;;5015589;28;20193;-87
2023/03/08 12:02:19;;;;;;;20.17;16.40;;;;;;;;;;5012351;28;20182;-88
2023/03/08 12:04:51;;;;;;;22.10;16.20;;;;;;;;;;5012322;28;20181;-88
2023/03/08 12:07:21;;;;;;;20.33;15.83;;;;;;;;;;5012317;28;20209;-87
2023/03/08 12:09:54;;;;;;;19.97;16.40;;;;;;;;;;5012232;28;20177;-88
2023/03/08 12:12:23;;;;;;;19.00;16.10;;;;;;;;;;5012719;28;20182;-88
2023/03/08 12:14:52;;;;;;;21.80;16.73;;;;;;;;;;5013016;28;20244;-88
2023/03/08 12:17:27;;;;;;;19.57;15.93;;;;;;;;;;5012647;28;20217;-87
2023/03/08 12:19:53;;;;;;;17.97;14.10;;;;;;;;;;5012471;28;20200;-88
2023/03/08 12:22:34;;;;;;;18.10;14.07;;;;;;;;;;5012365;28;20181;-89
2023/03/08 12:25:19;;;;;;;17.63;13.70;;;;;;;;;;5012576;28;20185;-88
2023/03/08 12:27:49;;;;;;;16.60;13.50;;;;;;;;;;5013436;28;20284;-88
2023/03/08 12:30:33;;;;;;;16.27;13.40;;;;;;;;;;5015800;28;20225;-89
2023/03/08 12:33:02;;;;;;;18.33;13.20;;;;;;;;;;5015641;28;20181;-88
2023/03/08 12:35:31;;;;;;;17.40;13.33;;;;;;;;;;5015797;28;20256;-88
2023/03/08 12:38:06;;;;;;;19.43;13.23;;;;;;;;;;5015748;28;20185;-88
2023/03/08 12:40:46;;;;;;;15.13;12.30;;;;;;;;;;5015748;28;20195;-90
2023/03/08 12:43:21;;;;;;;16.00;11.83;;;;;;;;;;5015789;28;20188;-89
2023/03/08 12:45:59;;;;;;;14.93;12.13;;;;;;;;;;5015516;28;20181;-88
2023/03/08 12:48:39;;;;;;;14.07;11.90;;;;;;;;;;5015451;28;20236;-90
2023/03/08 12:51:15;;;;;;;16.27;11.97;;;;;;;;;;5015053;28;20197;-88
2023/03/08 12:53:55;;;;;;;15.13;11.87;;;;;;;;;;5015623;28;20177;-88
2023/03/08 12:56:24;;;;;;;12.10;9.97;;;;;;;;;;5015426;28;20181;-88
2023/03/08 12:58:53;;;;;;;12.53;10.50;;;;;;;;;;5015233;28;20178;-89
2023/03/08 13:01:42;;;;;;;11.47;9.97;;;;;;;;;;5015249;28;20217;-90
2023/03/08 13:04:27;;;;;;;11.13;8.93;;;;;;;;;;5015193;28;20184;-89
2023/03/08 13:07:10;;;;;;;11.10;9.10;;;;;;;;;;5015140;28;20208;-90
2023/03/08 13:09:45;;;;;;;10.70;9.60;;;;;;;;;;5014999;28;20247;-91
2023/03/08 13:12:21;;;;;;;12.43;9.10;;;;;;;;;;5015414;28;20218;-90
2023/03/08 13:14:59;;;;;;;11.30;8.73;;;;;;;;;;5015101;28;20184;-91
2023/03/08 13:17:40;;;;;;;11.10;8.70;;;;;;;;;;5015081;28;20248;-90
2023/03/08 13:20:09;;;;;;;10.53;9.07;;;;;;;;;;5015004;28;20243;-91
2023/03/08 13:22:48;;;;;;;12.53;8.83;;;;;;;;;;5014853;28;20187;-88
2023/03/08 13:25:17;;;;;;;10.80;8.20;;;;;;;;;;5014749;28;20184;-91
2023/03/08 13:27:46;;;;;;;10.80;8.20;;;;;;;;;;5014652;28;20303;-89
2023/03/08 13:30:31;;;;;;;9.10;7.83;;;;;;;;;;5017548;28;20212;-91
2023/03/08 13:32:58;;;;;;;8.47;7.47;;;;;;;;;;5018177;28;20172;-91
2023/03/08 13:35:27;;;;;;;8.70;7.03;;;;;;;;;;5018103;28;20231;-89
2023/03/08 13:37:58;;;;;;;10.70;7.50;;;;;;;;;;5020501;28;20192;-92
2023/03/08 13:40:29;;;;;;;8.93;7.80;;;;;;;;;;5016877;28;20181;-90
2023/03/08 13:43:33;;;;;;;9.47;7.70;;;;;;;;;;5017817;28;20266;-89
2023/03/08 13:46:05;;;;;;;8.20;7.33;;;;;;;;;;5017720;28;20188;-88
2023/03/08 13:48:54;;;;;;;7.83;7.03;;;;;;;;;;5017494;28;20217;-88
2023/03/08 13:51:22;;;;;;;8.27;6.80;;;;;;;;;;5017351;28;20228;-87
2023/03/08 13:53:48;;;;;;;8.07;7.27;;;;;;;;;;5017417;28;20176;-88
2023/03/08 13:56:22;;;;;;;8.17;7.33;;;;;;;;;;5017300;28;20169;-88
2023/03/08 13:58:51;;;;;;;8.87;7.97;;;;;;;;;;5017279;28;20199;-87
2023/03/08 14:01:21;;;;;;;8.83;7.93;;;;;;;;;;5017169;28;20259;-88
2023/03/08 14:03:48;;;;;;;9.83;8.00;;;;;;;;;;5017065;28;20187;-89
2023/03/08 14:06:36;;;;;;;8.50;7.57;;;;;;;;;;5017179;28;20173;-88
2023/03/08 14:09:03;;;;;;;9.47;7.77;;;;;;;;;;5017021;28;20212;-88
2023/03/08 14:11:34;;;;;;;8.70;7.80;;;;;;;;;;5017199;28;20184;-88
2023/03/08 14:14:01;;;;;;;8.70;7.90;;;;;;;;;;5017171;28;20180;-88
2023/03/08 14:16:32;;;;;;;8.23;7.43;;;;;;;;;;5016797;28;20264;-88
2023/03/08 14:18:59;;;;;;;9.60;8.33;;;;;;;;;;5016966;28;20188;-88
2023/03/08 14:21:34;;;;;;;8.57;7.67;;;;;;;;;;5017232;28;20231;-88
2023/03/08 14:24:09;;;;;;;9.13;8.13;;;;;;;;;;5016971;28;20180;-87
2023/03/08 14:26:39;;;;;;;8.83;8.00;;;;;;;;;;5008849;28;20275;-89
2023/03/08 14:29:14;;;;;;;8.70;7.73;;;;;;;;;;5012024;28;20181;-87
2023/03/08 14:31:51;;;;;;;8.90;7.97;;;;;;;;;;5001308;28;20248;-86
2023/03/08 14:34:19;;;;;;;8.47;7.70;;;;;;;;;;5003232;28;20255;-87
2023/03/08 14:37:11;;;;;;;9.87;8.37;;;;;;;;;;5005970;28;20181;-87
2023/03/08 14:39:39;;;;;;;9.80;8.30;;;;;;;;;;4979763;28;20358;-86
2023/03/08 14:42:28;;;;;;;9.33;8.33;;;;;;;;;;5009954;28;20185;-87
2023/03/08 14:44:59;;;;;;;9.40;8.50;;;;;;;;;;4984450;28;20185;-87
2023/03/08 14:47:38;;;;;;;9.07;7.80;;;;;;;;;;5001914;28;20220;-86
2023/03/08 14:50:07;;;;;;;9.30;8.40;;;;;;;;;;4996320;28;20221;-86